Search for airport 
image banner adimage banner adimage banner ad
image banner ad

2Q9 - Dyer

Located in Dyer, United States

ICAO - 2Q9, IATA -

Data provided by Airmate  

General information

Coordinates: N37°36'35" W118°0'23"
Elevation is 4899 feet MSL.
Magnetic variation is 15° East
View others Airports in Nevada

Operational data

Special qualification required
Current time UTC:
Current local time:
Weather at : KBIH - Bishop ( 41 km )
METAR: KBIH 092156Z AUTO VRB04KT 10SM CLR 26/M09 A2986 RMK AO2 SLP070 T02611094
TAF: KBIH 091725Z 0918/1018 34009KT P6SM SCT250 FM100100 34014G23KT P6SM FEW120 FEW200 FM100700 34010KT P6SM SKC FM101500 35014G23KT P6SM SKC
View NOTAMs / SUP AIP / TFR affecting this airport [VIEW]
Communications frequencies: [VIEW]

Runways:

RWY identifierQFULength (ft)Width (ft)SurfaceLDA (ft)
12287050EARTH
30287050EARTH

Airport contact information

Address: Dyer United States

Satellite view of 2Q9